Westville, Oklahoma
Current Conditions -  °F | °C
As of 6:15 PM on Monday 20 Oct 2014 (Local Time) from KSLG Reporting Station
Overcast Overcast  
Wind Chill: 66°   Ceiling: 2500
Heat Index: 66°   Visibility: 10mi
Dew Point: 55°   Wind: 0mph
Humidity: 68%   Direction: NA
Pressure: 30.06"   Gusts: NA
Location:  35.99°N, 94.57°W
Report Text: KSLG 202315Z AUTO 00000KT 10SM OVC025 19/13 A3006 RMK AO1
Loading
Personal Weather Stations






























Interactive Weather Map
Tropical Storm Tracking
New forecast layout! Learn more

10-Day Weather Forecast

Advertisements
Track Severe Weather on mobile